createdAt,value
2022-09-24T00:01:51.828Z,6.57
2022-09-24T00:04:20.193Z,6.63
2022-09-24T00:06:49.763Z,6.57
2022-09-24T00:09:21.934Z,6.58
2022-09-24T00:11:51.271Z,6.43
2022-09-24T00:14:19.632Z,6.44
2022-09-24T00:16:47.591Z,6.38
2022-09-24T00:19:15.548Z,6.31
2022-09-24T00:21:43.974Z,6.24
2022-09-24T00:24:36.862Z,6.31
2022-09-24T00:27:05.788Z,6.21
2022-09-24T00:29:35.344Z,6.21
2022-09-24T00:32:04.653Z,6.11
2022-09-24T00:34:32.855Z,6.24
2022-09-24T00:37:00.832Z,6.18
2022-09-24T00:39:30.153Z,6.18
2022-09-24T00:41:58.000Z,6.19
2022-09-24T00:44:55.400Z,6.19
2022-09-24T00:47:31.341Z,6.11
2022-09-24T00:50:08.000Z,6.01
2022-09-24T00:52:39.483Z,6.09
2022-09-24T00:55:10.768Z,6.12
2022-09-24T00:57:41.377Z,6.12
2022-09-24T01:00:10.694Z,6.09
2022-09-24T01:02:43.366Z,6.04
2022-09-24T01:05:11.456Z,6.10
2022-09-24T01:07:39.335Z,6.13
2022-09-24T01:10:09.497Z,6.07
2022-09-24T01:12:45.956Z,5.97
2022-09-24T01:15:24.172Z,5.99
2022-09-24T01:18:00.099Z,5.95
2022-09-24T01:20:58.317Z,5.93
2022-09-24T01:23:57.351Z,5.97
2022-09-24T01:26:38.491Z,5.92
2022-09-24T01:29:28.358Z,5.92
2022-09-24T01:32:05.950Z,5.82
2022-09-24T01:34:40.157Z,5.74
2022-09-24T01:37:08.582Z,5.63
2022-09-24T01:39:39.011Z,5.68
2022-09-24T01:42:08.177Z,5.54
2022-09-24T01:44:38.162Z,5.53
2022-09-24T01:47:07.692Z,5.53
2022-09-24T01:49:35.613Z,5.56
2022-09-24T01:52:10.868Z,5.53
2022-09-24T01:54:43.540Z,5.47
2022-09-24T01:57:14.837Z,5.54
2022-09-24T01:59:50.236Z,5.42
2022-09-24T02:02:23.439Z,5.40
2022-09-24T02:04:57.031Z,5.34
2022-09-24T02:07:30.668Z,5.43
2022-09-24T02:09:58.540Z,5.37
2022-09-24T02:12:32.304Z,5.41
2022-09-24T02:15:08.069Z,5.43
2022-09-24T02:17:39.149Z,5.39
2022-09-24T02:20:14.151Z,5.38
2022-09-24T02:22:43.585Z,5.35
2022-09-24T02:25:15.416Z,5.29
2022-09-24T02:27:43.390Z,5.27
2022-09-24T02:30:13.208Z,5.10
2022-09-24T02:32:43.771Z,5.20
2022-09-24T02:35:12.302Z,5.02
2022-09-24T02:37:42.012Z,5.07
2022-09-24T02:40:13.333Z,4.97
2022-09-24T02:42:42.379Z,5.06
2022-09-24T02:45:14.228Z,4.92
2022-09-24T02:47:42.098Z,4.95
2022-09-24T02:50:10.744Z,4.98
2022-09-24T02:52:38.659Z,4.97
2022-09-24T02:55:06.996Z,5.00
2022-09-24T02:57:34.842Z,4.98
2022-09-24T03:00:03.295Z,4.98
2022-09-24T03:02:32.631Z,5.01
2022-09-24T03:05:00.568Z,4.86
2022-09-24T03:07:28.508Z,4.80
2022-09-24T03:09:56.341Z,4.85
2022-09-24T03:12:25.029Z,4.76
2022-09-24T03:14:52.989Z,4.70
2022-09-24T03:17:20.847Z,4.63
2022-09-24T03:19:50.079Z,4.63
2022-09-24T03:22:17.980Z,4.57
2022-09-24T03:24:46.322Z,4.58
2022-09-24T03:27:14.225Z,4.54
2022-09-24T03:29:59.361Z,4.49
2022-09-24T03:32:27.832Z,4.50
2022-09-24T03:34:57.176Z,4.45
2022-09-24T03:37:25.100Z,4.48
2022-09-24T03:39:52.964Z,4.50
2022-09-24T03:42:20.811Z,4.48
2022-09-24T03:44:48.668Z,4.49
2022-09-24T03:47:16.584Z,4.41
2022-09-24T03:49:44.477Z,4.41
2022-09-24T03:52:14.067Z,4.46
2022-09-24T03:54:41.958Z,4.40
2022-09-24T03:57:10.001Z,4.42
2022-09-24T03:59:37.844Z,4.45
2022-09-24T04:02:05.739Z,4.36
2022-09-24T04:04:33.635Z,4.48
2022-09-24T04:07:01.767Z,4.45
2022-09-24T04:09:31.001Z,4.53
2022-09-24T04:11:59.003Z,4.48
2022-09-24T04:14:27.155Z,4.51
2022-09-24T04:16:55.058Z,4.48
2022-09-24T04:19:22.902Z,4.57
2022-09-24T04:21:50.873Z,4.60
2022-09-24T04:24:21.362Z,4.54
2022-09-24T04:26:50.582Z,4.49
2022-09-24T04:29:18.454Z,4.52
2022-09-24T04:31:46.722Z,4.49
2022-09-24T04:34:15.560Z,4.53
2022-09-24T04:36:43.424Z,4.60
2022-09-24T04:39:12.162Z,4.58
2022-09-24T04:41:41.132Z,4.66
2022-09-24T04:44:11.257Z,4.66
2022-09-24T04:46:40.957Z,4.68
2022-09-24T04:49:09.905Z,4.60
2022-09-24T04:51:37.839Z,4.62
2022-09-24T04:54:05.915Z,4.70
2022-09-24T04:56:33.785Z,4.71
2022-09-24T04:59:04.019Z,4.70
2022-09-24T05:01:33.654Z,4.67
2022-09-24T05:04:01.972Z,4.67
2022-09-24T05:06:29.847Z,4.71
2022-09-24T05:08:57.916Z,4.72
2022-09-24T05:11:25.799Z,4.70
2022-09-24T05:13:53.942Z,4.80
2022-09-24T05:16:22.700Z,4.71
2022-09-24T05:18:52.057Z,4.78
2022-09-24T05:21:20.205Z,4.83
2022-09-24T05:23:48.076Z,4.88
2022-09-24T05:26:33.491Z,4.99
2022-09-24T05:29:01.700Z,5.08
2022-09-24T05:31:29.759Z,5.10
2022-09-24T05:33:58.991Z,5.18
2022-09-24T05:36:27.079Z,5.27
2022-09-24T05:38:55.017Z,5.29
2022-09-24T05:41:22.970Z,5.37
2022-09-24T05:43:50.955Z,5.48
2022-09-24T05:46:18.901Z,5.51
2022-09-24T05:48:46.875Z,5.57
2022-09-24T05:51:16.154Z,5.66
2022-09-24T05:53:44.692Z,5.76
2022-09-24T05:56:12.575Z,5.81
2022-09-24T05:58:40.520Z,5.91
2022-09-24T06:01:08.431Z,5.97
2022-09-24T06:03:36.314Z,6.06
2022-09-24T06:06:04.294Z,6.16
2022-09-24T06:08:34.325Z,6.17
2022-09-24T06:11:03.375Z,6.36
2022-09-24T06:13:32.378Z,6.44
2022-09-24T06:16:03.857Z,6.50
2022-09-24T06:18:32.664Z,6.56
2022-09-24T06:21:03.563Z,6.68
2022-09-24T06:23:33.210Z,6.69
2022-09-24T06:26:01.125Z,6.74
2022-09-24T06:28:29.066Z,6.79
2022-09-24T06:30:56.991Z,6.86
2022-09-24T06:33:24.888Z,6.80
2022-09-24T06:35:52.766Z,6.98
2022-09-24T06:38:21.205Z,7.09
2022-09-24T06:40:50.496Z,7.24
2022-09-24T06:43:18.884Z,7.29
2022-09-24T06:45:47.190Z,7.36
2022-09-24T06:48:15.827Z,7.44
2022-09-24T06:50:45.602Z,7.51
2022-09-24T06:53:14.138Z,7.60
2022-09-24T06:55:42.622Z,7.63
2022-09-24T06:58:13.941Z,7.84
2022-09-24T07:00:43.046Z,7.96
2022-09-24T07:03:16.528Z,7.90
2022-09-24T07:05:44.561Z,7.99
2022-09-24T07:08:12.602Z,8.10
2022-09-24T07:10:44.133Z,8.01
2022-09-24T07:13:14.528Z,8.17
2022-09-24T07:15:43.079Z,8.46
2022-09-24T07:18:11.170Z,8.55
2022-09-24T07:20:39.264Z,8.86
2022-09-24T07:23:08.456Z,9.14
2022-09-24T07:25:37.474Z,9.30
2022-09-24T07:28:06.574Z,9.34
2022-09-24T07:30:36.806Z,9.52
2022-09-24T07:33:05.545Z,9.71
2022-09-24T07:35:33.489Z,9.73
2022-09-24T07:38:02.903Z,10.14
2022-09-24T07:40:32.239Z,10.35
2022-09-24T07:43:00.744Z,10.21
2022-09-24T07:45:30.147Z,10.00
2022-09-24T07:48:00.620Z,10.17
2022-09-24T07:50:29.794Z,10.29
2022-09-24T07:52:57.735Z,10.36
2022-09-24T07:55:26.076Z,10.37
2022-09-24T07:57:55.668Z,10.32
2022-09-24T08:00:25.544Z,10.41
2022-09-24T08:02:53.905Z,10.57
2022-09-24T08:05:23.259Z,10.70
2022-09-24T08:07:55.307Z,10.78
2022-09-24T08:10:23.610Z,11.03
2022-09-24T08:12:51.570Z,11.13
2022-09-24T08:15:20.398Z,11.23
2022-09-24T08:17:48.276Z,11.25
2022-09-24T08:20:16.356Z,11.45
2022-09-24T08:22:45.747Z,11.45
2022-09-24T08:25:13.589Z,11.63
2022-09-24T08:27:41.478Z,11.56
2022-09-24T08:30:10.922Z,11.60
2022-09-24T08:32:38.815Z,11.83
2022-09-24T08:35:08.287Z,12.09
2022-09-24T08:37:37.186Z,12.20
2022-09-24T08:40:08.607Z,12.22
2022-09-24T08:42:45.575Z,12.51
2022-09-24T08:45:30.753Z,12.50
2022-09-24T08:48:02.693Z,12.53
2022-09-24T08:50:32.510Z,12.58
2022-09-24T08:53:13.454Z,12.61
2022-09-24T08:55:47.473Z,12.80
2022-09-24T08:58:32.987Z,12.74
2022-09-24T09:01:08.491Z,13.05
2022-09-24T09:03:44.225Z,13.11
2022-09-24T09:06:25.327Z,13.20
2022-09-24T09:09:08.125Z,13.13
2022-09-24T09:11:40.600Z,13.14
2022-09-24T09:14:14.886Z,13.29
2022-09-24T09:16:51.059Z,13.41
2022-09-24T09:19:21.214Z,13.57
2022-09-24T09:21:54.715Z,13.65
2022-09-24T09:24:28.110Z,14.00
2022-09-24T09:26:58.383Z,14.18
2022-09-24T09:29:28.217Z,14.31
2022-09-24T09:32:10.326Z,14.24
2022-09-24T09:34:51.252Z,14.39
2022-09-24T09:37:28.504Z,14.23
2022-09-24T09:40:09.963Z,14.16
2022-09-24T09:42:41.130Z,14.36
2022-09-24T09:45:28.080Z,14.49
2022-09-24T09:47:57.917Z,14.59
2022-09-24T09:50:29.514Z,14.88
2022-09-24T09:52:57.716Z,15.18
2022-09-24T09:55:28.384Z,15.44
2022-09-24T09:58:11.279Z,15.92
2022-09-24T10:00:39.571Z,16.76
2022-09-24T10:03:08.123Z,17.40
2022-09-24T10:05:36.385Z,18.00
2022-09-24T10:08:04.379Z,18.46
2022-09-24T10:10:32.405Z,18.72
2022-09-24T10:13:13.810Z,18.81
2022-09-24T10:15:51.161Z,19.31
2022-09-24T10:18:29.030Z,18.91
2022-09-24T10:20:58.380Z,19.34
2022-09-24T10:23:35.143Z,19.91
2022-09-24T10:26:04.560Z,20.49
2022-09-24T10:28:52.733Z,20.36
2022-09-24T10:31:23.721Z,20.66
2022-09-24T10:33:54.718Z,20.84
2022-09-24T10:36:24.345Z,21.14
2022-09-24T10:39:03.772Z,21.03
2022-09-24T10:41:32.881Z,21.55
2022-09-24T10:44:06.351Z,21.74
2022-09-24T10:46:59.991Z,21.51
2022-09-24T10:49:42.299Z,20.87
2022-09-24T10:52:26.730Z,21.02
2022-09-24T10:55:05.278Z,20.69
2022-09-24T10:57:39.680Z,20.35
2022-09-24T11:00:17.196Z,20.05
2022-09-24T11:03:03.741Z,20.32
2022-09-24T11:05:37.018Z,20.63
2022-09-24T11:08:22.483Z,20.77
2022-09-24T11:11:18.023Z,20.55
2022-09-24T11:13:55.145Z,20.48
2022-09-24T11:16:55.408Z,20.61
2022-09-24T11:19:41.356Z,20.46
2022-09-24T11:22:15.126Z,20.66
2022-09-24T11:25:07.810Z,20.19
2022-09-24T11:27:57.785Z,20.22
2022-09-24T11:30:34.451Z,20.35
2022-09-24T11:33:22.096Z,20.72
2022-09-24T11:36:04.612Z,20.45
2022-09-24T11:38:49.721Z,20.38
2022-09-24T11:41:28.019Z,20.65
2022-09-24T11:44:16.924Z,20.78
2022-09-24T11:46:56.769Z,20.66
2022-09-24T11:49:46.785Z,20.88
2022-09-24T11:52:20.783Z,21.40
2022-09-24T11:54:57.709Z,21.55
2022-09-24T11:57:30.046Z,21.63
2022-09-24T12:00:05.954Z,21.67
2022-09-24T12:02:38.271Z,21.62
2022-09-24T12:05:14.246Z,21.55
2022-09-24T12:07:49.093Z,21.54
2022-09-24T12:10:29.924Z,21.66
2022-09-24T12:13:04.248Z,22.07
2022-09-24T12:15:47.283Z,22.30
2022-09-24T12:18:20.072Z,22.01
2022-09-24T12:20:53.377Z,22.25
2022-09-24T12:23:28.028Z,21.93
2022-09-24T12:25:58.719Z,22.00
2022-09-24T12:28:52.286Z,21.46
2022-09-24T12:31:45.395Z,21.36
2022-09-24T12:34:19.726Z,21.41
2022-09-24T12:36:58.783Z,21.60
2022-09-24T12:39:33.190Z,21.97
2022-09-24T12:42:04.470Z,21.99
2022-09-24T12:44:41.021Z,22.46
2022-09-24T12:47:19.166Z,22.94
2022-09-24T12:49:52.626Z,23.02
2022-09-24T12:52:27.335Z,23.28
2022-09-24T12:55:00.277Z,23.69
2022-09-24T12:57:33.107Z,22.73
2022-09-24T13:00:02.843Z,23.09
2022-09-24T13:02:33.267Z,23.09
2022-09-24T13:05:19.706Z,23.19
2022-09-24T13:08:01.269Z,24.01
2022-09-24T13:10:31.259Z,24.24
2022-09-24T13:13:01.330Z,24.14
2022-09-24T13:15:34.954Z,24.07
2022-09-24T13:18:06.157Z,24.19
2022-09-24T13:20:36.186Z,24.07
2022-09-24T13:23:31.812Z,23.51
2022-09-24T13:26:02.989Z,24.04
2022-09-24T13:28:38.862Z,24.01
2022-09-24T13:31:17.527Z,24.60
2022-09-24T13:33:48.149Z,24.35
2022-09-24T13:36:20.152Z,24.50
2022-09-24T13:38:57.376Z,24.78
2022-09-24T13:41:37.381Z,25.35
2022-09-24T13:44:12.897Z,25.12
2022-09-24T13:46:44.430Z,24.66
2022-09-24T13:49:17.810Z,23.98
2022-09-24T13:51:49.756Z,23.67
2022-09-24T13:54:27.143Z,24.09
2022-09-24T13:57:11.201Z,23.84
2022-09-24T13:59:39.286Z,23.58
2022-09-24T14:02:25.496Z,24.17
2022-09-24T14:04:58.761Z,24.07
2022-09-24T14:07:28.784Z,23.97
2022-09-24T14:10:07.205Z,23.24
2022-09-24T14:12:35.453Z,22.83
2022-09-24T14:15:15.813Z,22.53
2022-09-24T14:17:44.191Z,22.18
2022-09-24T14:20:15.961Z,21.96
2022-09-24T14:22:45.816Z,21.44
2022-09-24T14:25:18.796Z,21.00
2022-09-24T14:27:50.253Z,21.09
2022-09-24T14:30:21.458Z,21.09
2022-09-24T14:32:53.057Z,21.16
2022-09-24T14:35:29.752Z,21.29
2022-09-24T14:38:04.382Z,21.32
2022-09-24T14:40:44.704Z,21.31
2022-09-24T14:43:19.631Z,21.20
2022-09-24T14:45:49.910Z,21.28
2022-09-24T14:48:22.268Z,20.87
2022-09-24T14:50:50.263Z,20.57
2022-09-24T14:53:23.899Z,20.53
2022-09-24T14:55:53.489Z,20.53
2022-09-24T14:58:27.488Z,20.76
2022-09-24T15:00:58.194Z,20.77
2022-09-24T15:03:34.078Z,21.02
2022-09-24T15:06:28.525Z,21.38
2022-09-24T15:09:00.514Z,21.56
2022-09-24T15:11:34.908Z,21.83
2022-09-24T15:14:13.769Z,21.69
2022-09-24T15:16:42.066Z,21.75
2022-09-24T15:19:20.012Z,21.75
2022-09-24T15:21:49.678Z,21.85
2022-09-24T15:24:18.066Z,21.96
2022-09-24T15:26:49.366Z,22.02
2022-09-24T15:29:24.381Z,21.84
2022-09-24T15:31:52.969Z,21.86
2022-09-24T15:34:21.079Z,21.71
2022-09-24T15:36:49.582Z,21.49
2022-09-24T15:39:20.678Z,21.50
2022-09-24T15:41:49.996Z,21.60
2022-09-24T15:44:22.992Z,21.66
2022-09-24T15:46:52.202Z,21.71
2022-09-24T15:49:22.123Z,21.60
2022-09-24T15:51:53.503Z,21.33
2022-09-24T15:54:24.812Z,21.30
2022-09-24T15:56:54.608Z,21.29
2022-09-24T15:59:23.533Z,20.90
2022-09-24T16:01:56.310Z,20.75
2022-09-24T16:04:24.507Z,20.51
2022-09-24T16:06:52.520Z,20.38
2022-09-24T16:09:20.450Z,20.14
2022-09-24T16:11:48.496Z,19.58
2022-09-24T16:14:17.815Z,19.55
2022-09-24T16:16:45.753Z,19.38
2022-09-24T16:19:14.438Z,19.12
2022-09-24T16:21:42.398Z,19.01
2022-09-24T16:24:10.760Z,18.77
2022-09-24T16:26:38.684Z,18.75
2022-09-24T16:29:09.913Z,18.75
2022-09-24T16:31:39.426Z,18.66
2022-09-24T16:34:07.324Z,18.47
2022-09-24T16:36:35.220Z,18.40
2022-09-24T16:39:03.236Z,18.26
2022-09-24T16:41:34.414Z,18.17
2022-09-24T16:44:02.710Z,17.83
2022-09-24T16:46:32.140Z,17.76
2022-09-24T16:49:01.438Z,17.70
2022-09-24T16:51:29.514Z,17.52
2022-09-24T16:53:58.249Z,17.38
2022-09-24T16:56:26.714Z,17.42
2022-09-24T16:58:54.702Z,17.38
2022-09-24T17:01:23.283Z,17.33
2022-09-24T17:03:55.113Z,17.29
2022-09-24T17:06:25.877Z,17.02
2022-09-24T17:09:12.216Z,16.87
2022-09-24T17:11:41.207Z,16.67
2022-09-24T17:14:12.432Z,16.49
2022-09-24T17:16:43.322Z,16.51
2022-09-24T17:19:12.676Z,16.28
2022-09-24T17:21:45.915Z,16.31
2022-09-24T17:24:20.631Z,16.27
2022-09-24T17:26:49.704Z,16.12
2022-09-24T17:29:20.783Z,16.09
2022-09-24T17:31:49.142Z,16.06
2022-09-24T17:34:17.312Z,15.98
2022-09-24T17:36:46.685Z,15.89
2022-09-24T17:39:15.012Z,15.92
2022-09-24T17:41:42.921Z,15.87
2022-09-24T17:44:12.551Z,15.87
2022-09-24T17:46:48.579Z,15.74
2022-09-24T17:49:19.562Z,15.77
2022-09-24T17:51:49.413Z,15.64
2022-09-24T17:54:19.151Z,15.66
2022-09-24T17:56:47.097Z,15.70
2022-09-24T17:59:16.746Z,15.69
2022-09-24T18:01:45.788Z,15.62
2022-09-24T18:04:15.895Z,15.62
2022-09-24T18:06:45.894Z,15.58
2022-09-24T18:09:16.502Z,15.54
2022-09-24T18:11:46.515Z,15.38
2022-09-24T18:14:17.536Z,15.19
2022-09-24T18:16:46.506Z,14.93
2022-09-24T18:19:17.165Z,14.83
2022-09-24T18:21:45.828Z,14.83
2022-09-24T18:24:16.435Z,14.83
2022-09-24T18:26:44.670Z,14.74
2022-09-24T18:29:15.789Z,14.31
2022-09-24T18:31:45.224Z,14.26
2022-09-24T18:34:15.215Z,14.03
2022-09-24T18:36:45.092Z,14.00
2022-09-24T18:39:21.732Z,13.95
2022-09-24T18:41:50.097Z,13.79
2022-09-24T18:44:19.789Z,13.92
2022-09-24T18:46:47.804Z,13.98
2022-09-24T18:49:15.717Z,14.09
2022-09-24T18:51:44.029Z,14.16
2022-09-24T18:54:14.016Z,14.18
2022-09-24T18:56:43.938Z,14.13
2022-09-24T18:59:14.208Z,14.10
2022-09-24T19:01:43.334Z,14.21
2022-09-24T19:04:13.753Z,14.23
2022-09-24T19:06:43.529Z,14.23
2022-09-24T19:09:14.446Z,14.29
2022-09-24T19:11:45.507Z,14.33
2022-09-24T19:14:15.053Z,14.39
2022-09-24T19:16:43.014Z,14.37
2022-09-24T19:19:12.306Z,14.42
2022-09-24T19:21:42.158Z,14.41
2022-09-24T19:24:11.033Z,14.16
2022-09-24T19:26:41.629Z,14.06
2022-09-24T19:29:11.379Z,13.82
2022-09-24T19:31:41.993Z,13.73
2022-09-24T19:34:12.883Z,13.56
2022-09-24T19:36:44.244Z,13.22
2022-09-24T19:39:13.802Z,13.22
2022-09-24T19:41:41.956Z,13.19
2022-09-24T19:44:11.942Z,13.13
2022-09-24T19:46:41.021Z,13.06
2022-09-24T19:49:09.155Z,13.07
2022-09-24T19:51:37.840Z,12.98
2022-09-24T19:54:08.403Z,12.98
2022-09-24T19:56:36.857Z,12.73
2022-09-24T19:59:07.877Z,12.70
2022-09-24T20:01:37.710Z,12.49
2022-09-24T20:04:08.072Z,12.43
2022-09-24T20:06:38.675Z,12.41
2022-09-24T20:09:07.240Z,12.28
2022-09-24T20:11:35.287Z,12.27
2022-09-24T20:14:06.005Z,12.15
2022-09-24T20:16:34.438Z,12.24
2022-09-24T20:19:04.310Z,12.06
2022-09-24T20:21:36.022Z,12.13
2022-09-24T20:24:05.080Z,12.17
2022-09-24T20:26:51.176Z,12.12
2022-09-24T20:29:21.609Z,11.75
2022-09-24T20:31:52.862Z,11.60
2022-09-24T20:34:24.788Z,11.48
2022-09-24T20:36:53.026Z,11.50
2022-09-24T20:39:21.670Z,11.59
2022-09-24T20:41:50.193Z,11.67
2022-09-24T20:44:18.553Z,11.52
2022-09-24T20:46:46.531Z,11.58
2022-09-24T20:49:19.709Z,11.51
2022-09-24T20:51:54.130Z,11.55
2022-09-24T20:54:24.725Z,11.43
2022-09-24T20:56:52.635Z,11.50
2022-09-24T20:59:20.773Z,11.45
2022-09-24T21:01:49.361Z,11.41
2022-09-24T21:04:34.794Z,11.38
2022-09-24T21:07:04.265Z,11.41
2022-09-24T21:09:32.201Z,11.39
2022-09-24T21:12:02.830Z,11.41
2022-09-24T21:14:31.023Z,11.42
2022-09-24T21:16:58.928Z,11.40
2022-09-24T21:19:26.853Z,11.26
2022-09-24T21:21:54.839Z,11.39
2022-09-24T21:24:29.071Z,11.39
2022-09-24T21:27:00.283Z,11.28
2022-09-24T21:29:28.391Z,11.17
2022-09-24T21:31:56.285Z,11.06
2022-09-24T21:34:24.203Z,11.06
2022-09-24T21:36:53.184Z,11.02
2022-09-24T21:39:24.572Z,10.91
2022-09-24T21:41:54.976Z,10.73
2022-09-24T21:44:22.897Z,10.62
2022-09-24T21:46:52.324Z,10.53
2022-09-24T21:49:21.172Z,10.52
2022-09-24T21:51:49.120Z,10.41
2022-09-24T21:54:18.756Z,10.42
2022-09-24T21:56:48.778Z,10.50
2022-09-24T21:59:34.724Z,10.52
2022-09-24T22:02:02.969Z,10.44
2022-09-24T22:04:32.248Z,10.14
2022-09-24T22:07:00.478Z,10.21
2022-09-24T22:09:28.370Z,10.27
2022-09-24T22:12:00.134Z,10.31
2022-09-24T22:14:28.861Z,10.09
2022-09-24T22:16:57.273Z,10.03
2022-09-24T22:19:25.305Z,10.04
2022-09-24T22:21:53.412Z,10.12
2022-09-24T22:24:21.458Z,10.04
2022-09-24T22:26:49.453Z,10.02
2022-09-24T22:29:18.724Z,9.88
2022-09-24T22:31:46.587Z,9.92
2022-09-24T22:34:31.632Z,9.93
2022-09-24T22:36:59.484Z,9.84
2022-09-24T22:39:27.341Z,9.81
2022-09-24T22:41:55.225Z,9.76
2022-09-24T22:44:24.452Z,9.75
2022-09-24T22:46:52.326Z,9.69
2022-09-24T22:49:20.885Z,9.67
2022-09-24T22:51:48.820Z,9.73
2022-09-24T22:54:16.737Z,9.64
2022-09-24T22:56:44.623Z,9.81
2022-09-24T22:59:12.771Z,9.82
2022-09-24T23:01:43.697Z,9.89
2022-09-24T23:04:14.921Z,9.81
2022-09-24T23:06:43.604Z,9.84
2022-09-24T23:09:12.139Z,9.77
2022-09-24T23:11:40.170Z,9.79
2022-09-24T23:14:12.376Z,9.79
2022-09-24T23:16:43.705Z,9.64
2022-09-24T23:19:14.557Z,9.63
2022-09-24T23:21:42.934Z,9.58
2022-09-24T23:24:15.205Z,9.61
2022-09-24T23:26:43.681Z,9.65
2022-09-24T23:29:12.512Z,9.65
2022-09-24T23:31:41.921Z,9.66
2022-09-24T23:34:10.586Z,9.60
2022-09-24T23:36:41.002Z,9.61
2022-09-24T23:39:09.068Z,9.57
2022-09-24T23:41:37.274Z,9.52
2022-09-24T23:44:05.194Z,9.53
2022-09-24T23:46:34.128Z,9.48
2022-09-24T23:49:03.762Z,9.49
2022-09-24T23:51:31.705Z,9.43
2022-09-24T23:53:59.992Z,9.45
2022-09-24T23:56:28.398Z,9.32
2022-09-24T23:58:57.694Z,9.25
